Time;durP1;ratioP1;P1;durP2;ratioP2;P2;SDS_P1;SDS_P2;PMS_P1;PMS_P2;Temp;Humidity;BMP_temperature;BMP_pressure;BME280_temperature;BME280_humidity;BME280_pressure;Samples;Min_cycle;Max_cycle;Signal;HPM_P1;HPM_P2
2023/07/18 00:00:23;;;;;;;7.72;4.18;;;;;;;16.68;73.72;102041.09;5074311;28;20033;-57
2023/07/18 00:02:49;;;;;;;9.13;4.15;;;;;;;16.66;73.31;102040.22;5074172;28;20067;-58
2023/07/18 00:05:14;;;;;;;8.10;3.95;;;;;;;16.58;73.09;102043.75;5074273;28;20075;-57
2023/07/18 00:07:44;;;;;;;11.38;3.85;;;;;;;16.39;74.09;102040.06;5074240;28;20024;-57
2023/07/18 00:10:10;;;;;;;8.55;3.85;;;;;;;16.22;74.78;102043.50;5074173;28;20032;-58
2023/07/18 00:12:37;;;;;;;8.80;3.97;;;;;;;16.09;75.83;102038.97;5074033;28;20036;-57
2023/07/18 00:15:04;;;;;;;13.48;3.90;;;;;;;15.98;76.56;102038.91;5074133;28;20032;-56
2023/07/18 00:17:31;;;;;;;8.23;3.60;;;;;;;15.97;76.32;102044.22;5073874;28;20036;-58
2023/07/18 00:19:58;;;;;;;7.13;3.63;;;;;;;16.05;76.30;102046.94;5074169;28;20035;-57
2023/07/18 00:22:24;;;;;;;8.13;3.60;;;;;;;16.11;76.18;102047.00;5055994;28;20035;-56
2023/07/18 00:24:49;;;;;;;10.32;4.00;;;;;;;16.12;76.04;102051.44;5055742;28;20044;-56
2023/07/18 00:27:16;;;;;;;6.75;3.67;;;;;;;16.10;76.07;102046.13;5074007;28;20628;-57
2023/07/18 00:29:42;;;;;;;7.05;3.30;;;;;;;16.14;75.84;102042.56;5074043;28;20041;-56
2023/07/18 00:32:07;;;;;;;7.88;3.50;;;;;;;16.19;75.55;102042.63;5073985;28;20107;-57
2023/07/18 00:34:33;;;;;;;6.70;3.40;;;;;;;16.23;75.01;102047.97;5073663;28;20500;-56
2023/07/18 00:36:58;;;;;;;5.32;3.22;;;;;;;16.11;74.60;102052.34;5073503;28;20453;-57
2023/07/18 00:39:25;;;;;;;8.73;3.30;;;;;;;15.89;76.72;102054.84;5073496;28;20378;-57
2023/07/18 00:41:52;;;;;;;5.95;3.08;;;;;;;15.73;77.26;102045.81;5073489;28;20033;-58
2023/07/18 00:44:17;;;;;;;6.25;3.10;;;;;;;15.57;77.38;102050.94;5073708;28;20194;-57
2023/07/18 00:46:43;;;;;;;7.07;3.15;;;;;;;15.49;78.42;102049.09;5072838;28;20530;-57
2023/07/18 00:49:08;;;;;;;6.55;3.22;;;;;;;15.45;78.40;102041.94;5073029;28;20021;-58
2023/07/18 00:51:34;;;;;;;5.78;3.47;;;;;;;15.44;78.62;102048.16;5073282;28;20107;-58
2023/07/18 00:54:00;;;;;;;6.63;3.40;;;;;;;15.35;79.11;102039.19;5073332;28;20025;-57
2023/07/18 00:56:26;;;;;;;7.13;3.10;;;;;;;15.39;78.52;102047.22;5073371;28;20111;-58
2023/07/18 00:58:52;;;;;;;6.35;3.15;;;;;;;15.38;78.67;102041.91;5073338;28;20423;-56
2023/07/18 01:01:18;;;;;;;6.45;2.90;;;;;;;15.36;78.76;102028.53;5073343;28;20025;-57
2023/07/18 01:03:44;;;;;;;9.68;3.25;;;;;;;15.32;79.29;102032.06;5055211;28;20378;-56
2023/07/18 01:06:10;;;;;;;6.07;3.10;;;;;;;15.38;78.90;102033.91;5055039;28;20035;-57
2023/07/18 01:08:35;;;;;;;10.23;3.15;;;;;;;15.28;78.81;102032.91;5073101;28;20044;-57
2023/07/18 01:11:01;;;;;;;6.35;3.20;;;;;;;15.31;79.32;102032.94;5055569;28;20028;-57
2023/07/18 01:13:27;;;;;;;7.32;3.30;;;;;;;15.24;79.91;102029.31;5073041;28;20394;-57
2023/07/18 01:15:52;;;;;;;7.22;3.40;;;;;;;15.22;79.36;102036.41;5073186;28;20027;-58
2023/07/18 01:18:18;;;;;;;5.75;3.28;;;;;;;15.25;79.13;102031.13;5072992;28;20063;-57
2023/07/18 01:20:45;;;;;;;7.32;3.35;;;;;;;15.27;78.65;102039.09;5072912;28;20057;-58
2023/07/18 01:23:11;;;;;;;7.13;3.10;;;;;;;15.30;78.56;102032.94;5072935;28;20496;-57
2023/07/18 01:25:37;;;;;;;5.57;3.20;;;;;;;15.38;78.29;102032.13;5072912;28;20044;-57
2023/07/18 01:28:03;;;;;;;8.32;2.95;;;;;;;15.43;78.05;102017.09;5072863;28;20089;-58
2023/07/18 01:30:30;;;;;;;7.65;3.35;;;;;;;15.47;77.75;102018.00;5072961;28;20028;-57
2023/07/18 01:32:56;;;;;;;6.20;3.40;;;;;;;15.40;77.87;102017.03;5072757;28;20029;-57
2023/07/18 01:35:27;;;;;;;5.32;3.20;;;;;;;15.41;78.43;102021.47;5073131;28;20031;-57
2023/07/18 01:37:53;;;;;;;6.93;3.20;;;;;;;15.45;78.20;102023.31;5072730;28;20029;-57
2023/07/18 01:40:20;;;;;;;8.75;3.50;;;;;;;15.26;78.76;102021.34;5072871;28;20556;-57
2023/07/18 01:42:47;;;;;;;7.00;3.17;;;;;;;15.16;78.71;102025.69;5072977;28;20025;-58
2023/07/18 01:45:13;;;;;;;8.70;3.40;;;;;;;15.03;79.42;102014.03;5071968;28;20482;-59
2023/07/18 01:47:40;;;;;;;6.47;3.10;;;;;;;14.94;79.68;102013.88;5054633;28;20124;-58
2023/07/18 01:50:07;;;;;;;4.63;2.97;;;;;;;14.87;80.26;102005.84;5072746;28;20051;-58
2023/07/18 01:52:34;;;;;;;6.53;3.00;;;;;;;14.80;80.64;102007.53;5072821;28;20028;-56
2023/07/18 01:55:02;;;;;;;5.18;3.00;;;;;;;14.73;80.70;101998.59;5072721;28;20490;-57
2023/07/18 01:57:32;;;;;;;6.50;3.20;;;;;;;14.81;80.66;101992.44;5072560;28;20024;-58
2023/07/18 01:59:59;;;;;;;4.63;3.00;;;;;;;14.92;80.19;101998.78;5075931;28;20021;-55
2023/07/18 02:02:24;;;;;;;6.68;3.10;;;;;;;15.00;79.91;102005.09;5076451;28;20390;-56
2023/07/18 02:04:50;;;;;;;6.03;3.10;;;;;;;14.93;79.49;101998.81;5058525;28;20028;-57
2023/07/18 02:07:16;;;;;;;6.47;3.20;;;;;;;14.84;80.41;102000.47;5076225;28;20405;-57
2023/07/18 02:09:41;;;;;;;6.13;3.28;;;;;;;14.69;81.36;101990.56;5076398;28;20012;-57
2023/07/18 02:12:08;;;;;;;5.45;3.13;;;;;;;14.61;81.49;101994.88;5058575;28;20029;-58
2023/07/18 02:14:36;;;;;;;4.53;2.90;;;;;;;14.55;81.65;101990.34;5058467;28;20103;-58
2023/07/18 02:17:02;;;;;;;4.93;2.83;;;;;;;14.51;81.61;101984.09;5076335;28;20017;-58
2023/07/18 02:19:27;;;;;;;6.22;2.88;;;;;;;14.47;82.35;101982.28;5076173;28;20180;-57
2023/07/18 02:21:53;;;;;;;4.40;2.80;;;;;;;14.43;82.02;101987.50;5076136;28;20070;-57
2023/07/18 02:24:18;;;;;;;6.10;2.83;;;;;;;14.43;82.40;101980.44;5076111;28;20020;-57
2023/07/18 02:26:44;;;;;;;7.10;3.03;;;;;;;14.45;82.66;101986.66;5076077;28;20021;-58
2023/07/18 02:29:09;;;;;;;3.90;2.75;;;;;;;14.41;82.81;101989.25;5076068;28;20461;-57
2023/07/18 02:31:34;;;;;;;4.70;2.85;;;;;;;14.40;82.43;101987.47;5076055;28;20029;-57
2023/07/18 02:34:00;;;;;;;5.75;3.10;;;;;;;14.40;82.90;101995.47;5075977;28;20085;-58
2023/07/18 02:36:25;;;;;;;6.63;3.85;;;;;;;14.42;82.61;101996.34;5075653;28;20064;-58
2023/07/18 02:38:51;;;;;;;9.27;3.42;;;;;;;14.49;82.83;101990.28;5075824;28;20116;-58
2023/07/18 02:41:17;;;;;;;6.45;3.67;;;;;;;14.51;82.47;101981.44;5075830;28;20413;-57
2023/07/18 02:43:42;;;;;;;5.95;3.13;;;;;;;14.56;81.86;101983.25;5076043;28;20025;-57
2023/07/18 02:46:08;;;;;;;9.52;4.00;;;;;;;14.52;82.96;101987.69;5075771;28;20489;-57
2023/07/18 02:48:33;;;;;;;7.10;3.33;;;;;;;14.48;82.92;101988.47;5057922;28;20035;-58
2023/07/18 02:50:59;;;;;;;8.10;3.90;;;;;;;14.42;82.88;101993.69;5075716;28;20493;-58
2023/07/18 02:53:24;;;;;;;6.97;3.90;;;;;;;14.39;83.44;101981.28;5075692;28;20029;-57
2023/07/18 02:55:51;;;;;;;10.68;3.67;;;;;;;14.31;83.87;101984.72;5075588;28;20107;-57
2023/07/18 02:58:17;;;;;;;9.18;3.55;;;;;;;14.26;83.96;101985.53;5075574;28;20043;-57
2023/07/18 03:00:42;;;;;;;7.25;3.40;;;;;;;14.26;83.35;101984.59;5057963;28;20024;-57
2023/07/18 03:03:08;;;;;;;7.05;3.58;;;;;;;14.22;83.22;101983.69;5075372;28;20085;-58
2023/07/18 03:05:33;;;;;;;5.57;3.38;;;;;;;14.18;83.40;101991.63;5075377;28;20089;-57
2023/07/18 03:07:59;;;;;;;5.88;3.20;;;;;;;14.13;83.32;101987.97;5075318;28;20039;-57
2023/07/18 03:10:25;;;;;;;7.57;3.38;;;;;;;14.15;83.16;101986.25;5074774;28;20036;-57
2023/07/18 03:12:50;;;;;;;8.00;3.42;;;;;;;14.21;82.68;101983.66;5075293;28;20386;-57
2023/07/18 03:15:19;;;;;;;4.65;2.90;;;;;;;14.36;82.35;101985.66;5075431;28;20382;-57
2023/07/18 03:17:45;;;;;;;5.88;3.25;;;;;;;14.38;81.50;101982.13;5075168;28;20512;-57
2023/07/18 03:20:17;;;;;;;7.15;3.28;;;;;;;14.47;81.46;101984.94;5075162;28;20025;-57
2023/07/18 03:22:51;;;;;;;5.45;3.35;;;;;;;14.46;81.00;101990.22;5075331;28;20060;-58
2023/07/18 03:25:19;;;;;;;5.28;3.10;;;;;;;14.35;80.88;101995.41;5057101;28;20546;-56
2023/07/18 03:27:45;;;;;;;5.38;3.05;;;;;;;14.31;81.17;101979.38;5075019;28;20027;-57
2023/07/18 03:30:12;;;;;;;7.53;3.42;;;;;;;14.29;81.29;101977.56;5075008;28;20020;-57
2023/07/18 03:32:38;;;;;;;7.72;3.40;;;;;;;14.20;81.60;101979.22;5074785;28;20458;-58
2023/07/18 03:35:06;;;;;;;9.13;3.53;;;;;;;14.15;81.58;101983.59;5075134;28;20078;-57
2023/07/18 03:37:32;;;;;;;7.25;3.40;;;;;;;14.06;81.99;101972.81;5074612;28;20028;-57
2023/07/18 03:39:57;;;;;;;6.10;3.47;;;;;;;14.09;82.47;101980.81;5056823;28;20033;-57
2023/07/18 03:42:23;;;;;;;8.10;3.67;;;;;;;14.04;82.32;101984.31;5074541;28;20027;-57
2023/07/18 03:44:48;;;;;;;6.97;3.70;;;;;;;14.01;82.43;101996.69;5074320;28;20060;-58
2023/07/18 03:47:13;;;;;;;5.38;3.33;;;;;;;14.00;82.62;101985.16;5073996;28;20102;-58
2023/07/18 03:49:39;;;;;;;9.75;3.40;;;;;;;14.05;82.15;101987.88;5074127;28;20060;-57
2023/07/18 03:52:05;;;;;;;10.15;3.38;;;;;;;14.10;81.58;101993.25;5074213;28;20440;-58
2023/07/18 03:54:32;;;;;;;6.85;3.47;;;;;;;14.09;81.59;101992.38;5073901;28;20052;-57
2023/07/18 03:56:58;;;;;;;6.15;3.05;;;;;;;14.12;81.54;101980.88;5073680;28;20044;-57
2023/07/18 03:59:23;;;;;;;5.40;3.28;;;;;;;14.12;81.23;101978.22;5073670;28;20112;-57
2023/07/18 04:01:49;;;;;;;7.55;3.30;;;;;;;14.16;81.17;101985.38;5073873;28;20435;-57
2023/07/18 04:04:15;;;;;;;7.35;3.08;;;;;;;14.15;80.99;101979.16;5073522;28;20382;-58
2023/07/18 04:06:43;;;;;;;6.38;3.10;;;;;;;13.87;80.74;101935.34;5073636;28;20040;-58
2023/07/18 04:09:09;;;;;;;4.97;2.95;;;;;;;14.08;80.97;101974.63;5073652;28;20028;-57
2023/07/18 04:11:35;;;;;;;4.97;3.30;;;;;;;14.00;81.03;101963.91;5073358;28;20044;-56
2023/07/18 04:14:01;;;;;;;6.72;3.50;;;;;;;14.00;81.35;101973.59;5055409;28;20339;-57
2023/07/18 04:16:26;;;;;;;5.25;3.20;;;;;;;13.92;82.11;101965.56;5073190;28;20111;-58
2023/07/18 04:18:52;;;;;;;5.80;3.35;;;;;;;13.86;82.43;101960.13;5073260;28;20060;-57
2023/07/18 04:21:17;;;;;;;8.18;3.05;;;;;;;13.84;82.55;101961.88;5055091;28;20430;-58
2023/07/18 04:23:43;;;;;;;5.68;3.28;;;;;;;13.88;82.38;101954.84;5073219;28;20060;-56
2023/07/18 04:26:09;;;;;;;6.90;3.15;;;;;;;13.97;82.13;101945.25;5073017;28;20045;-57
2023/07/18 04:28:39;;;;;;;5.88;2.70;;;;;;;14.08;82.43;101953.34;5055368;28;20117;-57
2023/07/18 04:31:05;;;;;;;5.70;2.80;;;;;;;14.15;81.70;101957.00;5073243;28;20040;-59
2023/07/18 04:33:36;;;;;;;6.07;2.92;;;;;;;14.22;81.29;101950.91;5072979;28;20060;-57
2023/07/18 04:36:04;;;;;;;4.38;2.55;;;;;;;14.27;81.11;101950.09;5073304;28;20378;-58
2023/07/18 04:38:30;;;;;;;4.80;2.78;;;;;;;14.37;81.31;101952.88;5072815;28;20036;-57
2023/07/18 04:40:55;;;;;;;4.90;2.92;;;;;;;14.33;80.81;101949.28;5072958;28;20032;-58
2023/07/18 04:43:21;;;;;;;7.22;3.05;;;;;;;14.30;81.25;101954.53;5072971;28;20457;-58
2023/07/18 04:45:47;;;;;;;6.00;2.83;;;;;;;14.27;81.61;101951.84;5073162;28;20023;-57
2023/07/18 04:48:17;;;;;;;7.00;3.13;;;;;;;14.27;81.39;101951.84;5072929;28;20112;-57
2023/07/18 04:50:44;;;;;;;5.65;3.05;;;;;;;14.40;80.70;101952.91;5073196;28;20032;-57
2023/07/18 04:53:09;;;;;;;5.45;2.90;;;;;;;14.40;80.34;101956.47;5072825;28;20474;-57
2023/07/18 04:55:36;;;;;;;5.82;3.10;;;;;;;14.51;80.34;101956.63;5073024;28;20023;-57
2023/07/18 04:58:05;;;;;;;6.85;3.20;;;;;;;14.57;79.96;101953.16;5072809;28;20035;-58
2023/07/18 05:00:31;;;;;;;7.57;3.20;;;;;;;14.64;78.93;101950.56;5072777;28;20170;-57
2023/07/18 05:02:58;;;;;;;11.60;3.20;;;;;;;14.78;79.25;101958.72;5072782;28;20029;-58
2023/07/18 05:05:25;;;;;;;6.45;3.47;;;;;;;14.75;79.13;101950.69;5072553;28;20021;-57
2023/07/18 05:07:50;;;;;;;9.82;3.15;;;;;;;14.80;79.15;101946.31;5072335;28;20465;-56
2023/07/18 05:10:16;;;;;;;8.18;3.15;;;;;;;14.91;78.82;101942.00;5072698;28;20112;-56
2023/07/18 05:12:41;;;;;;;6.82;3.65;;;;;;;15.01;78.50;101950.97;5072554;28;20048;-58
2023/07/18 05:15:07;;;;;;;6.55;3.13;;;;;;;15.08;78.27;101938.63;5072338;28;20039;-57
2023/07/18 05:17:33;;;;;;;6.90;3.15;;;;;;;15.23;77.87;101957.41;5072757;28;20025;-57
2023/07/18 05:19:58;;;;;;;8.52;3.10;;;;;;;15.31;77.37;101954.81;5072410;28;20029;-58
2023/07/18 05:22:23;;;;;;;7.07;3.00;;;;;;;15.33;77.69;101953.03;5072607;28;20066;-57
2023/07/18 05:24:49;;;;;;;8.20;3.05;;;;;;;15.41;77.80;101952.22;5072160;28;20056;-57
2023/07/18 05:27:14;;;;;;;11.98;3.13;;;;;;;15.50;76.40;101951.41;5072591;28;20029;-57
2023/07/18 05:29:41;;;;;;;5.40;3.10;;;;;;;15.58;76.48;101951.47;5072749;28;20041;-58
2023/07/18 05:32:07;;;;;;;9.07;2.90;;;;;;;15.72;76.63;101963.19;5072307;28;20103;-58
2023/07/18 05:34:33;;;;;;;7.32;3.17;;;;;;;15.87;76.07;101959.72;5077580;28;20086;-57
2023/07/18 05:37:00;;;;;;;8.00;3.03;;;;;;;15.95;76.16;101948.25;5060781;28;20131;-57
2023/07/18 05:39:27;;;;;;;6.97;3.00;;;;;;;16.06;75.19;101950.06;5078927;28;20676;-57
2023/07/18 05:41:54;;;;;;;6.38;3.22;;;;;;;16.15;75.45;101943.03;5079224;28;20416;-58
2023/07/18 05:44:19;;;;;;;8.20;2.83;;;;;;;16.33;74.89;101947.56;5079103;28;20029;-56
2023/07/18 05:46:44;;;;;;;10.18;3.00;;;;;;;16.43;75.50;101946.69;5078794;28;20020;-57
2023/07/18 05:49:10;;;;;;;11.48;3.10;;;;;;;16.56;74.54;101949.44;5078751;28;20068;-58
2023/07/18 05:51:35;;;;;;;6.72;2.88;;;;;;;16.65;73.35;101950.34;5079146;28;20035;-58
2023/07/18 05:54:04;;;;;;;6.57;3.00;;;;;;;16.77;73.28;101960.22;5078821;28;20024;-57
2023/07/18 05:56:30;;;;;;;8.32;2.70;;;;;;;16.90;73.08;101958.47;5078837;28;20108;-58
2023/07/18 05:58:55;;;;;;;8.63;3.05;;;;;;;17.01;72.09;101965.63;5078750;28;20478;-57
2023/07/18 06:01:21;;;;;;;9.13;3.10;;;;;;;17.08;71.25;101958.50;5060881;28;20025;-56
2023/07/18 06:03:47;;;;;;;5.25;2.60;;;;;;;17.22;71.47;101967.44;5078696;28;20039;-57
2023/07/18 06:06:13;;;;;;;6.97;2.97;;;;;;;17.34;70.42;101962.97;5078877;28;20028;-58
2023/07/18 06:08:38;;;;;;;6.80;3.10;;;;;;;17.38;70.11;101957.63;5078452;28;20028;-58
2023/07/18 06:11:03;;;;;;;6.78;3.10;;;;;;;17.43;68.72;101968.31;5079010;28;20031;-56
2023/07/18 06:13:29;;;;;;;10.52;3.30;;;;;;;17.51;68.66;101964.78;5078696;28;20036;-57
2023/07/18 06:15:54;;;;;;;6.43;3.00;;;;;;;17.67;68.66;101954.97;5078673;28;20025;-57
2023/07/18 06:18:20;;;;;;;11.38;3.20;;;;;;;17.86;68.02;101966.59;5078609;28;20031;-57
2023/07/18 06:20:45;;;;;;;8.57;3.30;;;;;;;17.92;67.28;101963.88;5060550;28;20021;-57
2023/07/18 06:23:11;;;;;;;6.90;3.00;;;;;;;18.09;66.83;101963.84;5078996;28;20024;-57
2023/07/18 06:25:36;;;;;;;9.93;3.10;;;;;;;18.21;66.50;101958.47;5078304;28;20044;-56
2023/07/18 06:28:02;;;;;;;9.43;3.20;;;;;;;18.24;66.52;101963.81;5060658;28;20096;-57
2023/07/18 06:30:29;;;;;;;8.90;2.97;;;;;;;18.36;65.05;101957.50;5078426;28;20039;-58
2023/07/18 06:32:55;;;;;;;5.97;3.00;;;;;;;18.52;64.47;101963.72;5060693;28;20128;-57
2023/07/18 06:35:20;;;;;;;9.75;3.13;;;;;;;18.68;64.38;101962.75;5060378;28;20039;-57
2023/07/18 06:37:46;;;;;;;7.13;3.03;;;;;;;18.86;63.59;101961.78;5078413;28;20041;-56
2023/07/18 06:40:12;;;;;;;9.35;2.83;;;;;;;18.89;62.03;101963.56;5078529;28;20424;-57
2023/07/18 06:42:39;;;;;;;7.95;2.67;;;;;;;19.03;61.82;101967.03;5060348;28;20067;-57
2023/07/18 06:45:05;;;;;;;8.77;2.63;;;;;;;19.17;61.41;101962.47;5075941;28;20434;-58
2023/07/18 06:47:30;;;;;;;6.70;2.55;;;;;;;19.32;60.68;101963.28;5075298;28;20031;-58
2023/07/18 06:49:56;;;;;;;8.60;2.85;;;;;;;19.49;61.57;101947.97;5075480;28;20032;-58
2023/07/18 06:52:21;;;;;;;5.00;2.55;;;;;;;19.71;59.85;101956.72;5075077;28;20025;-58
2023/07/18 06:54:47;;;;;;;5.22;2.55;;;;;;;19.88;60.58;101957.44;5075237;28;20029;-57
2023/07/18 06:57:15;;;;;;;7.82;2.67;;;;;;;20.03;59.47;101956.38;5075023;28;20029;-57
2023/07/18 06:59:41;;;;;;;10.63;2.80;;;;;;;20.16;60.26;101941.94;5075239;28;20102;-56
2023/07/18 07:02:10;;;;;;;4.80;2.75;;;;;;;20.25;58.63;101938.25;5074890;28;20047;-56
2023/07/18 07:04:36;;;;;;;10.13;2.47;;;;;;;20.38;57.02;101944.34;5074114;28;20024;-57
2023/07/18 07:07:03;;;;;;;8.50;2.90;;;;;;;20.53;56.94;101940.63;5074068;28;20040;-58
2023/07/18 07:09:29;;;;;;;5.35;2.25;;;;;;;20.83;56.70;101950.06;5074333;28;20025;-58
2023/07/18 07:11:54;;;;;;;6.85;2.40;;;;;;;21.04;56.31;101951.56;5056563;28;20037;-58
2023/07/18 07:14:20;;;;;;;6.10;2.33;;;;;;;21.28;53.68;101945.78;5073539;28;20456;-57
2023/07/18 07:16:46;;;;;;;7.78;2.38;;;;;;;21.40;55.01;101950.13;5074197;28;20021;-57
2023/07/18 07:19:13;;;;;;;9.15;2.47;;;;;;;21.49;52.41;101953.53;5074038;28;20067;-57
2023/07/18 07:21:38;;;;;;;7.30;2.47;;;;;;;21.50;53.49;101949.06;5074386;28;20036;-57
2023/07/18 07:24:04;;;;;;;6.53;2.15;;;;;;;21.65;53.59;101950.59;5074221;28;20027;-59
2023/07/18 07:26:30;;;;;;;5.10;2.17;;;;;;;21.82;52.83;101953.88;5074446;28;20056;-59
2023/07/18 07:28:55;;;;;;;5.18;2.00;;;;;;;21.91;52.06;101947.44;5074448;28;20056;-57
2023/07/18 07:31:21;;;;;;;5.47;2.20;;;;;;;22.10;51.83;101947.94;5074388;28;20078;-57
2023/07/18 07:33:46;;;;;;;5.40;2.05;;;;;;;22.27;50.85;101947.66;5074734;28;20032;-59
2023/07/18 07:36:12;;;;;;;4.03;1.90;;;;;;;22.24;50.37;101946.81;5074497;28;20537;-57
2023/07/18 07:38:37;;;;;;;4.07;1.90;;;;;;;22.18;50.12;101943.34;5072406;28;20481;-57
2023/07/18 07:41:05;;;;;;;2.90;1.63;;;;;;;22.19;48.79;101946.03;5056018;28;20029;-56
2023/07/18 07:43:30;;;;;;;4.57;1.40;;;;;;;22.06;48.42;101955.22;5074031;28;20115;-57
2023/07/18 07:45:56;;;;;;;3.45;1.70;;;;;;;22.10;48.83;101950.66;5073563;28;20028;-57
2023/07/18 07:48:21;;;;;;;3.97;1.80;;;;;;;22.25;48.19;101937.81;5073909;28;20028;-57
2023/07/18 07:50:48;;;;;;;4.70;1.98;;;;;;;22.45;48.73;101945.50;5073869;28;20024;-57
2023/07/18 07:53:14;;;;;;;4.03;1.95;;;;;;;22.49;49.01;101949.91;5074266;28;20067;-57
2023/07/18 07:55:39;;;;;;;6.32;1.92;;;;;;;22.72;48.02;101944.00;5073365;28;20056;-58
2023/07/18 07:58:05;;;;;;;4.32;2.00;;;;;;;22.72;48.02;101938.59;5073016;28;20036;-59
2023/07/18 08:00:30;;;;;;;6.22;2.00;;;;;;;22.99;47.53;101936.22;5073981;28;20029;-58
2023/07/18 08:02:56;;;;;;;4.80;1.70;;;;;;;23.08;46.18;101938.69;5073763;28;20040;-57
2023/07/18 08:05:21;;;;;;;4.82;1.85;;;;;;;23.30;46.09;101941.78;5074059;28;20025;-58
2023/07/18 08:07:48;;;;;;;4.35;1.70;;;;;;;23.40;44.89;101943.31;5073064;28;20032;-58
2023/07/18 08:10:13;;;;;;;2.33;1.70;;;;;;;23.56;45.18;101932.16;5074126;28;20041;-58
2023/07/18 08:12:39;;;;;;;3.92;1.75;;;;;;;23.48;45.17;101938.63;5073500;28;20070;-59
2023/07/18 08:15:06;;;;;;;4.40;1.90;;;;;;;23.65;44.66;101929.25;5073959;28;20028;-57
2023/07/18 08:17:31;;;;;;;2.85;1.60;;;;;;;23.46;42.83;101929.66;5073779;28;20033;-57
2023/07/18 08:19:56;;;;;;;3.58;1.40;;;;;;;23.54;45.30;101925.91;5073404;28;20156;-57
2023/07/18 08:22:22;;;;;;;3.03;1.70;;;;;;;23.66;43.92;101934.59;5073761;28;20033;-58
2023/07/18 08:24:47;;;;;;;4.43;1.58;;;;;;;23.77;41.33;101928.00;5073205;28;20478;-57
2023/07/18 08:27:13;;;;;;;4.03;1.45;;;;;;;23.96;40.95;101923.88;5073744;28;20032;-58
2023/07/18 08:29:38;;;;;;;2.88;1.45;;;;;;;23.77;40.70;101922.59;5073734;28;20461;-58
2023/07/18 08:32:04;;;;;;;3.90;1.55;;;;;;;23.89;41.78;101916.88;5073408;28;20036;-58
2023/07/18 08:34:29;;;;;;;3.90;1.73;;;;;;;24.07;40.42;101916.38;5073129;28;20060;-58
2023/07/18 08:36:55;;;;;;;2.42;1.50;;;;;;;24.27;40.33;101907.69;5073132;28;20085;-58
2023/07/18 08:39:20;;;;;;;3.45;1.60;;;;;;;24.40;40.18;101911.81;5073200;28;20112;-57
2023/07/18 08:41:51;;;;;;;2.33;1.38;;;;;;;24.55;40.24;101912.31;5073124;28;20036;-58
2023/07/18 08:44:17;;;;;;;3.72;1.60;;;;;;;24.58;40.85;101917.59;5073157;28;20028;-58
2023/07/18 08:46:47;;;;;;;4.18;1.60;;;;;;;24.80;40.85;101901.63;5073287;28;20094;-58
2023/07/18 08:49:15;;;;;;;2.33;1.50;;;;;;;24.79;40.40;101902.53;5072845;28;20421;-58
2023/07/18 08:51:45;;;;;;;3.25;1.50;;;;;;;24.84;38.75;101906.91;5073045;28;20024;-59
2023/07/18 08:54:12;;;;;;;3.88;1.30;;;;;;;24.71;38.17;101894.66;5072975;28;20137;-59
2023/07/18 08:56:43;;;;;;;3.05;1.40;;;;;;;24.80;38.59;101894.41;5073217;28;20048;-58
2023/07/18 08:59:10;;;;;;;3.63;1.60;;;;;;;25.08;37.42;101897.13;5073377;28;20039;-58
2023/07/18 09:01:35;;;;;;;3.97;1.27;;;;;;;25.04;38.30;101894.53;5072790;28;20028;-58
2023/07/18 09:04:01;;;;;;;2.15;1.20;;;;;;;24.92;38.65;101888.59;5072977;28;20157;-59
2023/07/18 09:06:27;;;;;;;2.13;1.27;;;;;;;25.08;38.86;101885.38;5073025;28;20154;-58
2023/07/18 09:08:54;;;;;;;3.47;1.38;;;;;;;25.35;37.83;101881.78;5071908;28;20483;-59
2023/07/18 09:11:20;;;;;;;2.17;1.40;;;;;;;25.66;36.81;101880.72;5072866;28;20048;-58
2023/07/18 09:13:47;;;;;;;2.92;1.42;;;;;;;25.71;36.83;101879.59;5072706;28;20075;-59
2023/07/18 09:16:17;;;;;;;3.28;1.40;;;;;;;25.54;35.98;101873.03;5072789;28;20029;-58
2023/07/18 09:18:55;;;;;;;2.00;1.55;;;;;;;25.51;36.71;101868.59;5072728;28;20035;-58
2023/07/18 09:21:23;;;;;;;2.15;1.30;;;;;;;25.72;35.24;101867.81;5072736;28;20085;-59
2023/07/18 09:23:49;;;;;;;2.65;1.30;;;;;;;25.63;36.39;101868.16;5072777;28;20036;-59
2023/07/18 09:26:19;;;;;;;3.55;1.50;;;;;;;25.63;36.49;101864.56;5072504;28;20063;-58
2023/07/18 09:28:45;;;;;;;3.45;1.38;;;;;;;25.85;36.14;101865.59;5072671;28;20050;-59
2023/07/18 09:31:21;;;;;;;3.97;1.45;;;;;;;25.82;36.38;101871.09;5054927;28;20028;-58
2023/07/18 09:33:49;;;;;;;4.25;1.58;;;;;;;25.82;35.52;101856.69;5072564;28;20036;-58
2023/07/18 09:36:17;;;;;;;3.15;1.50;;;;;;;25.96;35.37;101857.97;5072697;28;20056;-58
2023/07/18 09:38:44;;;;;;;3.22;1.40;;;;;;;26.00;35.59;101864.16;5072443;28;20027;-58
2023/07/18 09:41:10;;;;;;;2.22;1.38;;;;;;;26.00;35.94;101852.44;5072746;28;20378;-61
2023/07/18 09:43:37;;;;;;;3.03;1.48;;;;;;;26.10;36.21;101849.31;5072473;28;20107;-58
2023/07/18 09:46:05;;;;;;;3.97;1.60;;;;;;;26.63;34.89;101857.19;5072701;28;20025;-60
2023/07/18 09:48:32;;;;;;;3.63;1.48;;;;;;;26.81;33.81;101851.94;5072352;28;20029;-58
2023/07/18 09:50:59;;;;;;;1.50;1.17;;;;;;;26.80;33.20;101858.34;5072407;28;20036;-59
2023/07/18 09:53:29;;;;;;;4.45;1.42;;;;;;;26.32;33.90;101862.91;5072469;28;20409;-59
2023/07/18 09:55:56;;;;;;;3.35;1.50;;;;;;;26.29;34.38;101862.13;5072788;28;20020;-58
2023/07/18 09:58:25;;;;;;;1.65;1.20;;;;;;;26.30;34.09;101861.22;5072462;28;20060;-57
2023/07/18 10:00:52;;;;;;;2.58;1.27;;;;;;;26.26;34.62;101857.75;5072301;28;20082;-57
2023/07/18 10:03:18;;;;;;;3.58;1.40;;;;;;;26.48;34.17;101851.50;5072694;28;20031;-58
2023/07/18 10:05:44;;;;;;;3.35;1.50;;;;;;;26.41;33.96;101845.41;5071056;28;20119;-59
2023/07/18 10:08:11;;;;;;;2.90;1.40;;;;;;;26.46;36.27;101848.84;5071937;28;20024;-60
2023/07/18 10:10:36;;;;;;;4.35;1.30;;;;;;;26.35;34.05;101849.25;5072521;28;20036;-58
2023/07/18 10:13:02;;;;;;;2.92;1.52;;;;;;;25.85;34.56;101845.75;5072251;28;20032;-58
2023/07/18 10:15:28;;;;;;;5.00;1.55;;;;;;;26.17;34.37;101841.84;5072047;28;20492;-58
2023/07/18 10:17:54;;;;;;;3.45;1.70;;;;;;;26.41;34.78;101824.59;5072396;28;20025;-58
2023/07/18 10:20:24;;;;;;;4.72;1.65;;;;;;;26.63;35.53;101816.50;5056137;28;20470;-58
2023/07/18 10:22:58;;;;;;;3.78;1.70;;;;;;;26.10;34.33;101832.16;5076209;28;20023;-58
2023/07/18 10:25:25;;;;;;;3.80;1.65;;;;;;;25.93;33.99;101822.84;5075650;28;20464;-59
2023/07/18 10:27:51;;;;;;;3.22;1.52;;;;;;;26.07;34.52;101805.19;5075866;28;20032;-58
2023/07/18 10:30:18;;;;;;;2.83;1.45;;;;;;;26.09;35.99;101795.19;5076096;28;20039;-59
2023/07/18 10:32:56;;;;;;;4.10;1.77;;;;;;;26.06;35.42;101801.59;5075701;28;20067;-58
2023/07/18 10:35:26;;;;;;;2.40;1.40;;;;;;;25.89;36.42;101798.66;5075650;28;20367;-58
2023/07/18 10:38:03;;;;;;;4.63;1.40;;;;;;;25.89;36.33;101802.25;5075601;28;20119;-59
2023/07/18 10:40:37;;;;;;;3.42;1.52;;;;;;;26.25;35.18;101800.88;5075973;28;20386;-58
2023/07/18 10:43:16;;;;;;;2.20;1.40;;;;;;;26.16;35.70;101797.56;5075416;28;20414;-58
2023/07/18 10:45:43;;;;;;;4.15;1.52;;;;;;;26.56;34.62;101793.34;5075488;28;20033;-57
2023/07/18 10:48:16;;;;;;;4.28;1.77;;;;;;;27.01;34.04;101797.75;5075256;28;20024;-59
2023/07/18 10:50:43;;;;;;;5.20;1.65;;;;;;;27.42;33.52;101787.84;5075234;28;20070;-60
2023/07/18 10:53:12;;;;;;;5.32;1.60;;;;;;;27.61;32.35;101789.72;5075340;28;20416;-58
2023/07/18 10:55:37;;;;;;;2.70;1.50;;;;;;;27.30;33.86;101782.09;5075571;28;20036;-58
2023/07/18 10:58:09;;;;;;;3.38;1.70;;;;;;;27.27;32.66;101787.63;5075330;28;20037;-58
2023/07/18 11:00:34;;;;;;;3.25;1.50;;;;;;;27.73;33.70;101774.75;5075333;28;20108;-59
2023/07/18 11:03:00;;;;;;;3.70;1.63;;;;;;;28.39;32.36;101772.50;5075523;28;20092;-58
2023/07/18 11:05:25;;;;;;;4.15;1.60;;;;;;;28.64;31.17;101778.47;5075010;28;20356;-59
2023/07/18 11:07:50;;;;;;;2.55;1.40;;;;;;;28.67;31.48;101769.28;5075132;28;20024;-58
2023/07/18 11:10:16;;;;;;;4.57;1.33;;;;;;;29.33;31.72;101761.34;5074972;28;20471;-59
2023/07/18 11:12:42;;;;;;;4.55;1.70;;;;;;;29.54;29.93;101774.75;5056987;28;20028;-59
2023/07/18 11:15:10;;;;;;;3.17;1.50;;;;;;;29.19;31.01;101775.69;5075001;28;20027;-58
2023/07/18 11:17:36;;;;;;;7.22;1.75;;;;;;;29.05;29.92;101766.50;5074810;28;20383;-59
2023/07/18 11:20:03;;;;;;;3.45;1.40;;;;;;;29.42;30.21;101776.28;5056808;28;20530;-59